首页
METAR-TAF:

METAR-TAF

机场 :

卡托维兹, 波兰

纬度: 50-28-27N, 经度: 019-04-48E, 海拔: 284米

当前天气观测

该预报发布于24分钟前的16:30 UTC
风速10节,风向
温度 9°C
湿度 87%
气压 1016 hPa
能见度10公里或以上
多云层高于800英尺
阴天层高于900英尺

METAR: EPKT 201630Z 08010KT 9999 BKN008 OVC009 09/07 Q1016

时间: 17:54 (16:54 UTC)

预报

该预报发布于3小时和57分钟前的12:57 UTC
预报有效从20日的 12点(UTC)到 21日的 12点(UTC)
风速7节,风向
能見度: 7000
阴天层高于500英尺
成为
从 20日的 15点(UTC)到 20日的 17点(UTC)
能見度: 3500
轻雾
成为
从 21日的 08点(UTC)到 21日的 10点(UTC)
能見度: 7000
多云层高于1500英尺

TAF: EPKT 201257Z 2012/2112 08007KT 7000 OVC005 BECMG 2015/2017 3500 BR BECMG 2108/2110 7000 BKN015

超过4000个机场的气象观测和天气预报(METAR&TAF报告)。

可查询的气象台以黄色和红色小点在地图上表示。

将鼠标移到小点上方,可查看气象台名称。

然后点击查看天气观测和预报。

如需切换地图:点击带黑十字的绿色按钮放大地图;点击带横线的绿色按钮缩小地图;或者点击绿色箭头查看邻近地区的地图。


METAR-TAF: